createdAt,value
2019-03-15T00:01:39.233Z,5.60
2019-03-15T00:04:08.038Z,5.60
2019-03-15T00:06:36.972Z,5.60
2019-03-15T00:09:08.459Z,5.60
2019-03-15T00:11:38.030Z,5.60
2019-03-15T00:14:07.326Z,5.50
2019-03-15T00:16:36.456Z,5.50
2019-03-15T00:19:05.510Z,5.50
2019-03-15T00:21:34.409Z,5.50
2019-03-15T00:24:03.204Z,5.40
2019-03-15T00:26:32.001Z,5.40
2019-03-15T00:29:00.798Z,5.40
2019-03-15T00:31:29.568Z,5.30
2019-03-15T00:33:58.422Z,5.20
2019-03-15T00:36:27.199Z,5.20
2019-03-15T00:38:56.065Z,5.20
2019-03-15T00:41:24.854Z,5.20
2019-03-15T00:43:53.917Z,5.10
2019-03-15T00:46:22.724Z,5.10
2019-03-15T00:48:51.509Z,5.10
2019-03-15T00:51:20.573Z,5.10
2019-03-15T00:53:49.372Z,5.10
2019-03-15T00:56:18.193Z,5.10
2019-03-15T00:58:47.295Z,5.10
2019-03-15T01:01:16.066Z,5.10
2019-03-15T01:03:44.858Z,5.10
2019-03-15T01:06:13.649Z,5.10
2019-03-15T01:08:42.677Z,5.10
2019-03-15T01:11:11.461Z,5.10
2019-03-15T01:13:40.628Z,5.00
2019-03-15T01:16:09.480Z,5.00
2019-03-15T01:18:38.243Z,5.00
2019-03-15T01:21:07.030Z,5.10
2019-03-15T01:23:35.812Z,5.20
2019-03-15T01:26:05.052Z,5.20
2019-03-15T01:28:33.843Z,5.20
2019-03-15T01:31:02.669Z,5.20
2019-03-15T01:33:31.438Z,5.20
2019-03-15T01:36:00.233Z,5.20
2019-03-15T01:38:29.074Z,5.10
2019-03-15T01:40:58.119Z,5.20
2019-03-15T01:43:27.419Z,5.20
2019-03-15T01:45:56.497Z,5.30
2019-03-15T01:48:25.682Z,5.30
2019-03-15T01:50:54.543Z,5.40
2019-03-15T01:53:23.618Z,5.40
2019-03-15T01:55:52.738Z,5.40
2019-03-15T01:58:21.845Z,5.50
2019-03-15T02:00:50.979Z,5.50
2019-03-15T02:03:19.753Z,5.50
2019-03-15T02:05:48.513Z,5.50
2019-03-15T02:08:17.368Z,5.50
2019-03-15T02:10:46.122Z,5.50
2019-03-15T02:13:15.238Z,5.50
2019-03-15T02:15:44.071Z,5.50
2019-03-15T02:18:12.865Z,5.50
2019-03-15T02:20:41.952Z,5.50
2019-03-15T02:23:11.166Z,5.50
2019-03-15T02:25:39.932Z,5.50
2019-03-15T02:28:08.710Z,5.60
2019-03-15T02:30:37.553Z,5.60
2019-03-15T02:33:06.671Z,5.60
2019-03-15T02:35:35.658Z,5.70
2019-03-15T02:38:04.517Z,5.70
2019-03-15T02:40:33.590Z,5.70
2019-03-15T02:43:02.385Z,5.70
2019-03-15T02:45:31.225Z,5.70
2019-03-15T02:48:00.006Z,5.70
2019-03-15T02:50:29.378Z,5.70
2019-03-15T02:52:58.357Z,5.60
2019-03-15T02:55:27.480Z,5.70
2019-03-15T02:57:56.286Z,5.70
2019-03-15T03:00:25.108Z,5.80
2019-03-15T03:02:54.186Z,5.80
2019-03-15T03:05:23.573Z,5.80
2019-03-15T03:07:52.682Z,5.90
2019-03-15T03:10:21.623Z,5.90
2019-03-15T03:12:50.487Z,5.90
2019-03-15T03:15:19.646Z,6.00
2019-03-15T03:17:48.445Z,5.90
2019-03-15T03:20:17.248Z,5.90
2019-03-15T03:22:46.105Z,5.90
2019-03-15T03:25:14.922Z,5.90
2019-03-15T03:27:43.693Z,5.90
2019-03-15T03:30:16.244Z,5.90
2019-03-15T03:32:44.510Z,6.00
2019-03-15T03:35:13.870Z,6.00
2019-03-15T03:37:42.713Z,6.00
2019-03-15T03:40:11.649Z,6.00
2019-03-15T03:42:40.513Z,6.00
2019-03-15T03:45:09.462Z,6.10
2019-03-15T03:47:38.317Z,6.10
2019-03-15T03:50:08.216Z,6.10
2019-03-15T03:52:37.128Z,6.10
2019-03-15T03:55:06.494Z,6.20
2019-03-15T03:57:36.513Z,6.20
2019-03-15T04:00:06.649Z,6.30
2019-03-15T04:02:35.546Z,6.40
2019-03-15T04:05:04.876Z,6.40
2019-03-15T04:07:33.758Z,6.40
2019-03-15T04:10:05.432Z,6.60
2019-03-15T04:12:33.517Z,6.70
2019-03-15T04:15:02.337Z,6.70
2019-03-15T04:17:31.189Z,6.70
2019-03-15T04:20:00.058Z,6.70
2019-03-15T04:22:28.917Z,6.70
2019-03-15T04:24:57.707Z,6.80
2019-03-15T04:27:26.638Z,6.80
2019-03-15T04:29:55.434Z,6.70
2019-03-15T04:32:24.225Z,6.70
2019-03-15T04:34:53.017Z,6.70
2019-03-15T04:37:41.023Z,6.70
2019-03-15T04:40:10.254Z,6.70
2019-03-15T04:42:39.118Z,6.70
2019-03-15T04:45:08.137Z,6.70
2019-03-15T04:47:37.001Z,6.70
2019-03-15T04:50:06.349Z,6.60
2019-03-15T04:52:35.127Z,6.60
2019-03-15T04:55:04.026Z,6.60
2019-03-15T04:57:32.897Z,6.60
2019-03-15T05:00:02.033Z,6.60
2019-03-15T05:02:31.112Z,6.60
2019-03-15T05:05:00.645Z,6.50
2019-03-15T05:07:30.029Z,6.50
2019-03-15T05:09:58.809Z,6.60
2019-03-15T05:12:27.682Z,6.60
2019-03-15T05:14:56.485Z,6.60
2019-03-15T05:17:25.263Z,6.60
2019-03-15T05:19:54.066Z,6.60
2019-03-15T05:22:22.906Z,6.60
2019-03-15T05:24:51.705Z,6.60
2019-03-15T05:27:20.515Z,6.60
2019-03-15T05:29:49.398Z,6.60
2019-03-15T05:32:18.205Z,6.60
2019-03-15T05:34:47.093Z,6.50
2019-03-15T05:37:15.877Z,6.50
2019-03-15T05:39:44.644Z,6.50
2019-03-15T05:42:13.450Z,6.60
2019-03-15T05:44:42.299Z,6.60
2019-03-15T05:47:11.110Z,6.60
2019-03-15T05:49:39.913Z,6.60
2019-03-15T05:52:08.697Z,6.70
2019-03-15T05:54:37.541Z,6.60
2019-03-15T05:57:06.413Z,6.60
2019-03-15T05:59:35.605Z,6.50
2019-03-15T06:02:04.813Z,6.50
2019-03-15T06:04:33.693Z,6.40
2019-03-15T06:07:03.031Z,6.40
2019-03-15T06:09:31.809Z,6.40
2019-03-15T06:12:00.588Z,6.50
2019-03-15T06:14:29.377Z,6.60
2019-03-15T06:16:58.164Z,6.60
2019-03-15T06:19:26.949Z,6.60
2019-03-15T06:21:55.726Z,6.70
2019-03-15T06:24:24.816Z,6.60
2019-03-15T06:26:53.679Z,6.60
2019-03-15T06:29:22.799Z,6.60
2019-03-15T06:32:10.788Z,6.60
2019-03-15T06:34:39.701Z,6.60
2019-03-15T06:37:08.448Z,6.50
2019-03-15T06:39:37.927Z,6.50
2019-03-15T06:42:06.709Z,6.50
2019-03-15T06:44:37.545Z,6.50
2019-03-15T06:47:06.828Z,6.40
2019-03-15T06:49:35.620Z,6.50
2019-03-15T06:52:04.481Z,6.50
2019-03-15T06:54:33.272Z,6.50
2019-03-15T06:57:02.056Z,6.50
2019-03-15T06:59:30.904Z,6.50
2019-03-15T07:01:59.789Z,6.50
2019-03-15T07:04:28.648Z,6.50
2019-03-15T07:06:57.425Z,6.50
2019-03-15T07:09:26.205Z,6.50
2019-03-15T07:12:08.494Z,6.50
2019-03-15T07:14:25.592Z,6.50
2019-03-15T07:16:54.391Z,6.50
2019-03-15T07:19:28.870Z,6.40
2019-03-15T07:21:53.691Z,6.40
2019-03-15T07:24:25.474Z,6.40
2019-03-15T07:26:54.272Z,6.50
2019-03-15T07:29:23.503Z,6.50
2019-03-15T07:31:52.315Z,6.60
2019-03-15T07:34:21.238Z,6.60
2019-03-15T07:36:50.087Z,6.60
2019-03-15T07:39:18.905Z,6.60
2019-03-15T07:41:47.966Z,6.50
2019-03-15T07:44:16.752Z,6.60
2019-03-15T07:46:45.628Z,6.60
2019-03-15T07:49:14.435Z,6.60
2019-03-15T07:51:43.273Z,6.60
2019-03-15T07:54:12.081Z,6.60
2019-03-15T07:56:40.956Z,6.60
2019-03-15T07:59:09.750Z,6.60
2019-03-15T08:01:38.555Z,6.70
2019-03-15T08:04:16.662Z,6.70
2019-03-15T08:06:38.176Z,6.70
2019-03-15T08:09:07.793Z,6.70
2019-03-15T08:11:36.584Z,6.80
2019-03-15T08:14:05.559Z,6.80
2019-03-15T08:16:34.773Z,6.80
2019-03-15T08:19:05.097Z,6.90
2019-03-15T08:21:34.569Z,6.90
2019-03-15T08:24:03.872Z,6.90
2019-03-15T08:26:32.978Z,6.90
2019-03-15T08:29:01.775Z,6.90
2019-03-15T08:31:30.645Z,6.90
2019-03-15T08:33:59.436Z,7.00
2019-03-15T08:36:28.300Z,7.00
2019-03-15T08:38:57.081Z,7.00
2019-03-15T08:41:25.857Z,7.00
2019-03-15T08:43:54.659Z,7.00
2019-03-15T08:46:23.448Z,7.00
2019-03-15T08:48:52.252Z,7.00
2019-03-15T08:51:21.030Z,7.00
2019-03-15T08:53:49.907Z,7.10
2019-03-15T08:56:18.698Z,7.10
2019-03-15T08:58:48.038Z,7.00
2019-03-15T09:01:16.883Z,7.00
2019-03-15T09:03:45.813Z,7.10
2019-03-15T09:06:14.695Z,7.10
2019-03-15T09:08:43.521Z,7.10
2019-03-15T09:11:12.645Z,7.10
2019-03-15T09:13:41.442Z,7.10
2019-03-15T09:16:10.226Z,7.10
2019-03-15T09:18:39.081Z,7.10
2019-03-15T09:21:08.210Z,7.20
2019-03-15T09:23:37.315Z,7.20
2019-03-15T09:26:06.202Z,7.30
2019-03-15T09:28:34.997Z,7.30
2019-03-15T09:31:03.876Z,7.40
2019-03-15T09:33:32.780Z,7.50
2019-03-15T09:36:01.936Z,7.50
2019-03-15T09:38:30.826Z,7.60
2019-03-15T09:40:59.914Z,7.70
2019-03-15T09:43:28.724Z,7.80
2019-03-15T09:45:57.597Z,7.80
2019-03-15T09:48:26.403Z,7.90
2019-03-15T09:50:55.502Z,7.90
2019-03-15T09:53:24.469Z,7.90
2019-03-15T09:55:53.352Z,8.00
2019-03-15T09:58:22.152Z,8.10
2019-03-15T10:00:50.996Z,8.10
2019-03-15T10:03:22.478Z,8.10
2019-03-15T10:05:50.459Z,8.20
2019-03-15T10:08:23.180Z,8.30
2019-03-15T10:10:50.087Z,8.40
2019-03-15T10:13:18.935Z,8.40
2019-03-15T10:15:47.945Z,8.40
2019-03-15T10:18:16.886Z,8.50
2019-03-15T10:20:45.758Z,8.50
2019-03-15T10:23:14.645Z,8.50
2019-03-15T10:25:47.106Z,8.60
2019-03-15T10:28:13.940Z,8.70
2019-03-15T10:30:43.142Z,8.80
2019-03-15T10:33:12.010Z,8.90
2019-03-15T10:35:40.992Z,9.00
2019-03-15T10:38:09.773Z,9.10
2019-03-15T10:40:38.635Z,9.20
2019-03-15T10:43:07.435Z,9.20
2019-03-15T10:45:36.304Z,9.20
2019-03-15T10:48:07.972Z,9.30
2019-03-15T10:50:35.749Z,9.40
2019-03-15T10:53:04.505Z,9.40
2019-03-15T10:55:33.729Z,9.50
2019-03-15T10:58:02.528Z,9.50
2019-03-15T11:00:32.125Z,9.60
2019-03-15T11:03:01.314Z,9.80
2019-03-15T11:05:30.124Z,9.80
2019-03-15T11:07:59.018Z,9.90
2019-03-15T11:10:27.870Z,10.00
2019-03-15T11:12:56.823Z,10.10
2019-03-15T11:15:25.889Z,10.10
2019-03-15T11:17:54.684Z,10.10
2019-03-15T11:20:24.170Z,10.20
2019-03-15T11:22:52.957Z,10.20
2019-03-15T11:25:21.904Z,10.20
2019-03-15T11:27:50.729Z,10.30
2019-03-15T11:30:19.695Z,10.30
2019-03-15T11:32:48.482Z,10.30
2019-03-15T11:35:17.422Z,10.30
2019-03-15T11:37:46.226Z,10.40
2019-03-15T11:40:15.172Z,10.40
2019-03-15T11:42:44.105Z,10.40
2019-03-15T11:45:13.064Z,10.40
2019-03-15T11:48:01.223Z,10.40
2019-03-15T11:50:12.690Z,10.50
2019-03-15T11:52:41.557Z,10.50
2019-03-15T11:55:10.827Z,10.50
2019-03-15T11:57:39.757Z,10.50
2019-03-15T12:00:10.332Z,10.60
2019-03-15T12:02:39.128Z,10.60
2019-03-15T12:05:08.588Z,10.60
2019-03-15T12:07:37.801Z,10.60
2019-03-15T12:10:06.945Z,10.50
2019-03-15T12:12:35.761Z,10.50
2019-03-15T12:15:05.372Z,10.60
2019-03-15T12:17:34.472Z,10.60
2019-03-15T12:20:03.373Z,10.60
2019-03-15T12:22:32.171Z,10.60
2019-03-15T12:25:01.274Z,10.60
2019-03-15T12:27:30.385Z,10.60
2019-03-15T12:29:59.202Z,10.60
2019-03-15T12:37:26.588Z,10.80
2019-03-15T12:39:55.403Z,10.80
2019-03-15T12:42:24.283Z,10.80
2019-03-15T12:44:53.893Z,10.90
2019-03-15T12:47:22.681Z,10.90
2019-03-15T12:49:51.488Z,11.00
2019-03-15T12:52:20.862Z,11.00
2019-03-15T12:54:50.047Z,11.00
2019-03-15T12:57:18.885Z,11.00
2019-03-15T12:59:48.061Z,11.10
2019-03-15T13:02:20.172Z,11.10
2019-03-15T13:04:48.059Z,11.20
2019-03-15T13:07:16.841Z,11.30
2019-03-15T13:09:45.627Z,11.30
2019-03-15T13:12:14.543Z,11.30
2019-03-15T13:14:43.337Z,11.30
2019-03-15T13:17:12.266Z,11.30
2019-03-15T13:19:54.233Z,11.30
2019-03-15T13:22:12.238Z,11.30
2019-03-15T13:24:41.049Z,11.30
2019-03-15T13:27:10.306Z,11.40
2019-03-15T13:29:39.080Z,11.40
2019-03-15T13:32:10.494Z,11.40
2019-03-15T13:34:39.284Z,11.40
2019-03-15T13:37:08.168Z,11.40
2019-03-15T13:39:36.952Z,11.40
2019-03-15T13:42:05.852Z,11.40
2019-03-15T13:44:35.127Z,11.40
2019-03-15T13:47:04.069Z,11.40
2019-03-15T13:49:32.852Z,11.40
2019-03-15T13:52:01.734Z,11.50
2019-03-15T13:54:30.907Z,11.40
2019-03-15T13:56:59.709Z,11.50
2019-03-15T13:59:28.512Z,11.50
2019-03-15T14:01:57.982Z,11.50
2019-03-15T14:04:26.776Z,11.50
2019-03-15T14:06:55.589Z,11.50
2019-03-15T14:09:24.870Z,11.50
2019-03-15T14:11:53.690Z,11.50
2019-03-15T14:14:22.833Z,11.50
2019-03-15T14:16:51.705Z,11.50
2019-03-15T14:19:21.126Z,11.60
2019-03-15T14:21:50.247Z,11.50
2019-03-15T14:24:19.184Z,11.60
2019-03-15T14:26:50.852Z,11.50
2019-03-15T14:29:18.618Z,11.50
2019-03-15T14:31:47.426Z,11.50
2019-03-15T14:34:16.301Z,11.50
2019-03-15T14:36:45.128Z,11.50
2019-03-15T14:39:14.012Z,11.50
2019-03-15T14:41:43.391Z,11.50
2019-03-15T14:44:12.750Z,11.50
2019-03-15T14:46:41.617Z,11.40
2019-03-15T14:49:10.499Z,11.50
2019-03-15T14:51:39.673Z,11.50
2019-03-15T14:54:08.794Z,11.50
2019-03-15T14:56:37.868Z,11.60
2019-03-15T14:59:06.676Z,11.60
2019-03-15T15:01:35.565Z,11.50
2019-03-15T15:04:04.500Z,11.60
2019-03-15T15:06:33.453Z,11.70
2019-03-15T15:09:02.328Z,11.70
2019-03-15T15:11:31.142Z,11.70
2019-03-15T15:13:59.944Z,11.70
2019-03-15T15:16:28.741Z,11.70
2019-03-15T15:18:57.529Z,11.70
2019-03-15T15:21:26.393Z,11.70
2019-03-15T15:23:55.456Z,11.70
2019-03-15T15:26:24.260Z,11.70
2019-03-15T15:28:53.061Z,11.60
2019-03-15T15:31:21.861Z,11.60
2019-03-15T15:33:50.657Z,11.60
2019-03-15T15:36:19.442Z,11.60
2019-03-15T15:38:48.312Z,11.60
2019-03-15T15:41:17.398Z,11.60
2019-03-15T15:43:46.185Z,11.60
2019-03-15T15:46:15.279Z,11.60
2019-03-15T15:48:44.141Z,11.60
2019-03-15T15:51:13.429Z,11.60
2019-03-15T15:53:42.245Z,11.60
2019-03-15T15:56:11.069Z,11.50
2019-03-15T15:58:40.229Z,11.50
2019-03-15T16:01:09.423Z,11.50
2019-03-15T16:03:38.220Z,11.50
2019-03-15T16:06:07.116Z,11.50
2019-03-15T16:08:36.008Z,11.50
2019-03-15T16:11:05.204Z,11.50
2019-03-15T16:13:34.031Z,11.40
2019-03-15T16:16:02.878Z,11.40
2019-03-15T16:18:31.969Z,11.40
2019-03-15T16:21:01.076Z,11.40
2019-03-15T16:23:30.593Z,11.40
2019-03-15T16:25:59.438Z,11.40
2019-03-15T16:28:31.796Z,11.30
2019-03-15T16:30:59.625Z,11.30
2019-03-15T16:33:28.420Z,11.30
2019-03-15T16:35:57.210Z,11.30
2019-03-15T16:38:26.016Z,11.20
2019-03-15T16:40:54.919Z,11.20
2019-03-15T16:43:23.781Z,11.20
2019-03-15T16:45:52.656Z,11.20
2019-03-15T16:48:21.465Z,11.20
2019-03-15T16:50:51.823Z,11.20
2019-03-15T16:53:20.844Z,11.10
2019-03-15T16:55:49.728Z,11.10
2019-03-15T16:58:18.965Z,11.10
2019-03-15T17:00:48.033Z,11.10
2019-03-15T17:03:16.919Z,11.10
2019-03-15T17:05:46.014Z,11.10
2019-03-15T17:08:15.109Z,11.10
2019-03-15T17:10:44.353Z,11.10
2019-03-15T17:13:13.165Z,11.10
2019-03-15T17:15:41.974Z,11.10
2019-03-15T17:18:11.040Z,11.10
2019-03-15T17:20:39.832Z,11.10
2019-03-15T17:23:09.287Z,11.10
2019-03-15T17:25:38.184Z,11.10
2019-03-15T17:28:06.993Z,11.10
2019-03-15T17:30:36.064Z,11.10
2019-03-15T17:33:06.320Z,11.10
2019-03-15T17:35:35.387Z,11.10
2019-03-15T17:38:04.380Z,11.10
2019-03-15T17:40:33.593Z,11.10
2019-03-15T17:43:02.477Z,11.10
2019-03-15T17:45:31.858Z,11.10
2019-03-15T17:48:00.676Z,11.10
2019-03-15T17:50:30.040Z,11.10
2019-03-15T17:52:58.941Z,11.10
2019-03-15T17:55:28.000Z,11.10
2019-03-15T17:57:56.872Z,11.10
2019-03-15T18:00:36.067Z,11.00
2019-03-15T18:03:19.286Z,11.00
2019-03-15T18:05:36.338Z,11.00
2019-03-15T18:08:05.346Z,11.10
2019-03-15T18:10:34.303Z,11.00
2019-03-15T18:13:03.303Z,11.00
2019-03-15T18:15:32.274Z,11.00
2019-03-15T18:18:01.601Z,11.00
2019-03-15T18:20:30.681Z,11.00
2019-03-15T18:22:59.577Z,11.00
2019-03-15T18:25:28.900Z,11.00
2019-03-15T18:27:58.055Z,11.00
2019-03-15T18:30:26.950Z,11.00
2019-03-15T18:32:56.173Z,11.00
2019-03-15T18:35:33.506Z,11.10
2019-03-15T18:37:56.107Z,11.10
2019-03-15T18:40:24.981Z,11.00
2019-03-15T18:42:53.841Z,11.10
2019-03-15T18:45:22.728Z,11.00
2019-03-15T18:47:51.669Z,11.00
2019-03-15T18:50:21.644Z,11.00
2019-03-15T18:52:50.580Z,11.00
2019-03-15T18:55:19.559Z,11.00
2019-03-15T18:57:48.443Z,11.00
2019-03-15T19:00:18.449Z,11.00
2019-03-15T19:02:47.458Z,11.00
2019-03-15T19:05:16.324Z,11.00
2019-03-15T19:07:45.125Z,11.00
2019-03-15T19:10:14.472Z,11.00
2019-03-15T19:12:43.840Z,11.00
2019-03-15T19:15:13.493Z,11.00
2019-03-15T19:17:42.693Z,11.00
2019-03-15T19:20:12.148Z,11.00
2019-03-15T19:22:41.081Z,11.00
2019-03-15T19:25:10.164Z,11.00
2019-03-15T19:27:39.461Z,11.00
2019-03-15T19:30:09.642Z,11.00
2019-03-15T19:32:38.853Z,11.00
2019-03-15T19:35:08.221Z,11.00
2019-03-15T19:37:37.481Z,11.00
2019-03-15T19:40:07.414Z,11.00
2019-03-15T19:42:36.785Z,11.00
2019-03-15T19:45:06.157Z,11.00
2019-03-15T19:47:35.251Z,11.10
2019-03-15T19:50:06.768Z,11.00
2019-03-15T19:52:35.593Z,11.00
2019-03-15T19:55:05.258Z,11.00
2019-03-15T19:57:34.038Z,10.90
2019-03-15T20:00:08.094Z,10.90
2019-03-15T20:02:33.791Z,10.80
2019-03-15T20:05:02.949Z,10.80
2019-03-15T20:07:31.954Z,10.80
2019-03-15T20:10:01.231Z,10.80
2019-03-15T20:12:30.041Z,10.70
2019-03-15T20:14:58.863Z,10.80
2019-03-15T20:17:27.652Z,10.80
2019-03-15T20:19:56.455Z,10.80
2019-03-15T20:22:25.623Z,10.80
2019-03-15T20:24:54.696Z,10.80
2019-03-15T20:27:23.815Z,10.80
2019-03-15T20:29:52.608Z,10.80
2019-03-15T20:32:21.396Z,10.70
2019-03-15T20:34:50.201Z,10.70
2019-03-15T20:37:19.312Z,10.70
2019-03-15T20:39:48.477Z,10.60
2019-03-15T20:42:17.290Z,10.60
2019-03-15T20:44:46.074Z,10.60
2019-03-15T20:47:14.868Z,10.60
2019-03-15T20:49:43.656Z,10.60
2019-03-15T20:52:12.445Z,10.60
2019-03-15T20:54:41.569Z,10.60
2019-03-15T20:57:10.374Z,10.60
2019-03-15T20:59:39.299Z,10.60
2019-03-15T21:02:08.104Z,10.60
2019-03-15T21:04:36.901Z,10.60
2019-03-15T21:07:05.784Z,10.60
2019-03-15T21:09:34.919Z,10.60
2019-03-15T21:12:04.149Z,10.60
2019-03-15T21:14:33.621Z,10.30
2019-03-15T21:17:02.427Z,10.60
2019-03-15T21:19:31.606Z,10.60
2019-03-15T21:22:00.722Z,10.60
2019-03-15T21:24:29.506Z,10.60
2019-03-15T21:26:58.382Z,10.60
2019-03-15T21:29:27.442Z,10.60
2019-03-15T21:31:56.595Z,10.70
2019-03-15T21:34:25.507Z,10.70
2019-03-15T21:36:54.678Z,10.70
2019-03-15T21:39:23.493Z,10.70
2019-03-15T21:41:52.412Z,10.70
2019-03-15T21:44:21.525Z,10.70
2019-03-15T21:46:50.845Z,10.70
2019-03-15T21:49:19.650Z,10.70
2019-03-15T21:51:49.249Z,10.70
2019-03-15T21:54:18.184Z,10.70
2019-03-15T21:56:47.109Z,10.70
2019-03-15T21:59:15.976Z,10.70
2019-03-15T22:01:44.777Z,10.70
2019-03-15T22:04:13.568Z,10.70
2019-03-15T22:06:42.693Z,10.70
2019-03-15T22:09:11.834Z,10.70
2019-03-15T22:11:40.704Z,10.70
2019-03-15T22:14:09.501Z,10.70
2019-03-15T22:16:38.302Z,10.70
2019-03-15T22:19:07.249Z,10.70
2019-03-15T22:21:36.308Z,10.80
2019-03-15T22:24:05.535Z,10.80
2019-03-15T22:29:02.785Z,10.80
2019-03-15T22:31:31.990Z,10.80
2019-03-15T22:34:00.865Z,10.80
2019-03-15T22:36:30.377Z,10.80
2019-03-15T22:38:59.891Z,10.80
2019-03-15T22:41:29.414Z,10.80
2019-03-15T22:43:58.581Z,10.80
2019-03-15T22:46:27.359Z,10.80
2019-03-15T22:48:56.238Z,10.80
2019-03-15T22:51:25.388Z,10.80
2019-03-15T22:53:54.193Z,10.80
2019-03-15T22:56:23.002Z,10.80
2019-03-15T22:58:51.981Z,10.80
2019-03-15T23:01:30.186Z,10.90
2019-03-15T23:03:51.789Z,10.80
2019-03-15T23:06:20.584Z,10.80
2019-03-15T23:08:49.666Z,10.80
2019-03-15T23:11:18.504Z,10.80
2019-03-15T23:13:47.326Z,10.80
2019-03-15T23:16:16.114Z,10.90
2019-03-15T23:18:45.234Z,10.80
2019-03-15T23:21:14.305Z,10.80
2019-03-15T23:23:43.154Z,10.80
2019-03-15T23:26:12.183Z,10.80
2019-03-15T23:28:40.981Z,10.80
2019-03-15T23:31:10.102Z,10.70
2019-03-15T23:33:38.917Z,10.70
2019-03-15T23:36:08.743Z,10.70
2019-03-15T23:38:37.603Z,10.70
2019-03-15T23:41:06.670Z,10.80
2019-03-15T23:43:35.524Z,10.80
2019-03-15T23:46:04.533Z,10.70
2019-03-15T23:48:33.331Z,10.70
2019-03-15T23:51:02.397Z,10.70
2019-03-15T23:53:31.252Z,10.70
2019-03-15T23:56:00.069Z,10.70
2019-03-15T23:58:28.852Z,10.60
